Time;durP1;ratioP1;P1;durP2;ratioP2;P2;SDS_P1;SDS_P2;PMS_P1;PMS_P2;Temp;Humidity;BMP_temperature;BMP_pressure;BME280_temperature;BME280_humidity;BME280_pressure;Samples;Min_cycle;Max_cycle;Signal;HPM_P1;HPM_P2
2024/02/22 00:00:33;;;;;;;5.30;3.22;;;;;;;;;;5060434;28;20502;-84
2024/02/22 00:02:59;;;;;;;5.53;3.65;;;;;;;;;;5060406;28;20092;-84
2024/02/22 00:05:24;;;;;;;5.20;3.38;;;10.00;99.90;;;;;;5061865;28;20049;-82
2024/02/22 00:07:51;;;;;;;3.78;2.38;;;10.00;99.90;;;;;;5059113;28;20047;-84
2024/02/22 00:10:17;;;;;;;5.50;3.47;;;;;;;;;;5059023;28;20017;-84
2024/02/22 00:12:43;;;;;;;4.40;2.55;;;;;;;;;;5059579;28;20075;-84
2024/02/22 00:15:10;;;;;;;5.43;3.10;;;10.00;99.90;;;;;;5059052;28;20025;-84
2024/02/22 00:17:36;;;;;;;4.32;2.97;;;10.10;99.90;;;;;;5060375;28;20017;-83
2024/02/22 00:20:03;;;;;;;4.20;2.92;;;10.10;99.90;;;;;;5060697;28;20057;-84
2024/02/22 00:22:30;;;;;;;4.80;2.90;;;;;;;;;;5059566;28;20029;-84
2024/02/22 00:24:56;;;;;;;4.30;2.50;;;;;;;;;;5059663;28;20037;-84
2024/02/22 00:27:23;;;;;;;5.78;3.35;;;10.00;99.90;;;;;;5060451;28;20385;-84
2024/02/22 00:29:49;;;;;;;5.07;3.05;;;10.00;99.90;;;;;;5059788;28;20021;-84
2024/02/22 00:32:15;;;;;;;6.70;2.60;;;;;;;;;;5061395;28;20115;-84
2024/02/22 00:34:41;;;;;;;5.60;3.10;;;10.00;99.90;;;;;;5059602;28;20029;-84
2024/02/22 00:37:07;;;;;;;5.15;3.08;;;;;;;;;;5060647;28;20047;-83
2024/02/22 00:39:33;;;;;;;6.10;2.97;;;;;;;;;;5059824;28;20025;-84
2024/02/22 00:41:58;;;;;;;4.85;2.67;;;10.10;99.90;;;;;;5058931;28;20032;-83
2024/02/22 00:44:24;;;;;;;4.47;3.03;;;;;;;;;;5060188;28;20155;-84
2024/02/22 00:46:52;;;;;;;5.15;2.85;;;;;;;;;;5063349;28;20034;-84
2024/02/22 00:49:18;;;;;;;3.93;2.47;;;;;;;;;;5063360;28;20023;-84
2024/02/22 00:51:44;;;;;;;6.05;2.22;;;10.10;99.90;;;;;;5063653;28;20267;-84
2024/02/22 00:54:09;;;;;;;3.80;1.90;;;10.10;99.90;;;;;;5063563;28;20020;-84
2024/02/22 00:56:37;;;;;;;3.63;2.10;;;;;;;;;;5062909;28;20020;-83
2024/02/22 00:59:02;;;;;;;3.28;1.90;;;10.10;99.90;;;;;;5063296;28;20392;-83
2024/02/22 01:01:29;;;;;;;3.55;1.70;;;;;;;;;;5061706;28;20070;-84
2024/02/22 01:03:55;;;;;;;4.55;1.98;;;;;;;;;;5062487;28;20416;-85
2024/02/22 01:06:21;;;;;;;2.22;1.30;;;10.10;99.90;;;;;;5062858;28;20025;-85
2024/02/22 01:08:46;;;;;;;2.38;1.48;;;10.10;99.90;;;;;;5063136;28;20538;-84
2024/02/22 01:11:12;;;;;;;3.45;1.55;;;10.80;99.90;;;;;;5062445;28;20029;-84
2024/02/22 01:13:38;;;;;;;1.75;1.05;;;10.10;99.90;;;;;;5063201;28;20075;-84
2024/02/22 01:16:04;;;;;;;1.60;1.10;;;10.10;99.90;;;;;;5063905;28;20032;-82
2024/02/22 01:18:31;;;;;;;2.45;1.27;;;10.10;99.90;;;;;;5063327;28;20032;-84
2024/02/22 01:20:57;;;;;;;3.15;1.60;;;;;;;;;;5063033;28;20043;-84
2024/02/22 01:23:23;;;;;;;2.45;1.27;;;10.10;99.90;;;;;;5063170;28;20456;-84
2024/02/22 01:25:49;;;;;;;2.63;1.48;;;10.10;99.90;;;;;;5063141;28;20045;-84
2024/02/22 01:28:15;;;;;;;3.85;1.65;;;10.10;99.90;;;;;;5062948;28;20037;-84
2024/02/22 01:30:41;;;;;;;2.83;1.42;;;;;;;;;;5061925;28;20021;-84
2024/02/22 01:33:08;;;;;;;4.97;2.65;;;10.10;99.90;;;;;;5062857;28;20025;-83
2024/02/22 01:35:34;;;;;;;3.03;1.70;;;10.20;99.90;;;;;;5063654;28;20025;-84
2024/02/22 01:38:00;;;;;;;3.35;1.70;;;10.10;99.90;;;;;;5062514;28;20048;-84
2024/02/22 01:40:26;;;;;;;3.65;1.77;;;;;;;;;;5063258;28;20021;-84
2024/02/22 01:42:52;;;;;;;4.35;1.33;;;;;;;;;;5062284;28;20512;-79
2024/02/22 01:45:17;;;;;;;4.85;1.05;;;10.20;99.90;;;;;;5058414;28;20036;-78
2024/02/22 01:47:43;;;;;;;4.82;1.85;;;10.20;99.90;;;;;;5058686;28;20502;-78
2024/02/22 01:50:10;;;;;;;2.67;1.33;;;10.20;99.90;;;;;;5060225;28;20025;-78
2024/02/22 01:52:36;;;;;;;2.22;1.50;;;10.20;99.90;;;;;;5060790;28;20066;-79
2024/02/22 01:55:03;;;;;;;3.88;1.55;;;10.20;99.90;;;;;;5061183;28;20080;-79
2024/02/22 01:57:29;;;;;;;3.53;1.25;;;10.20;99.90;;;;;;5057964;28;20511;-79
2024/02/22 01:59:55;;;;;;;3.83;1.65;;;10.20;99.90;;;;;;5059279;28;20051;-78
2024/02/22 02:02:21;;;;;;;5.15;2.13;;;10.20;99.90;;;;;;5059442;28;20017;-78
2024/02/22 02:04:47;;;;;;;5.68;1.85;;;10.20;99.90;;;;;;5058342;28;20039;-79
2024/02/22 02:07:12;;;;;;;5.60;1.30;;;10.20;99.90;;;;;;5058546;28;20017;-78
2024/02/22 02:09:38;;;;;;;4.25;1.38;;;10.20;99.90;;;;;;5058468;28;20085;-79
2024/02/22 02:12:04;;;;;;;4.95;2.30;;;;;;;;;;5058490;28;20028;-78
2024/02/22 02:14:30;;;;;;;7.82;2.78;;;10.20;99.90;;;;;;5056928;28;20128;-78
2024/02/22 02:16:56;;;;;;;11.80;4.07;;;10.20;99.90;;;;;;5057348;28;20053;-79
2024/02/22 02:19:27;;;;;;;20.15;4.38;;;10.20;99.90;;;;;;5055873;28;20025;-78
2024/02/22 02:22:21;;;;;;;22.55;5.57;;;10.30;99.90;;;;;;5058042;28;20021;-78
2024/02/22 02:25:01;;;;;;;16.48;5.38;;;10.20;99.90;;;;;;5056959;28;20036;-79
2024/02/22 02:27:26;;;;;;;22.40;4.80;;;10.20;99.90;;;;;;5057034;28;20017;-79
2024/02/22 02:29:52;;;;;;;17.35;5.05;;;10.20;99.90;;;;;;5059970;28;20025;-77
2024/02/22 02:32:18;;;;;;;20.90;4.57;;;10.20;99.90;;;;;;5063220;28;20391;-77
2024/02/22 02:34:43;;;;;;;26.85;5.05;;;10.30;99.90;;;;;;5056020;28;20036;-77
2024/02/22 02:37:09;;;;;;;21.33;4.70;;;10.20;99.90;;;;;;5055679;28;20060;-77
2024/02/22 02:39:34;;;;;;;20.88;5.10;;;10.20;99.90;;;;;;5053244;28;20523;-77
2024/02/22 02:42:00;;;;;;;37.65;6.35;;;10.20;99.90;;;;;;5053730;28;20488;-77
2024/02/22 02:44:26;;;;;;;29.48;4.32;;;;;;;;;;5053630;28;20488;-77
2024/02/22 02:46:52;;;;;;;26.10;5.13;;;10.20;99.90;;;;;;5052878;28;20022;-77
2024/02/22 02:49:17;;;;;;;23.27;3.45;;;10.20;99.90;;;;;;5053223;28;20025;-77
2024/02/22 02:51:43;;;;;;;32.00;4.70;;;10.20;99.90;;;;;;5052883;28;20028;-77
2024/02/22 02:54:09;;;;;;;28.70;4.03;;;10.30;99.90;;;;;;5052565;28;20059;-77
2024/02/22 02:56:34;;;;;;;33.75;4.60;;;10.20;99.90;;;;;;5052879;28;20033;-77
2024/02/22 02:59:00;;;;;;;31.08;4.20;;;10.20;99.90;;;;;;5053954;28;20056;-78
2024/02/22 03:01:25;;;;;;;30.15;4.80;;;10.20;99.90;;;;;;5060116;28;20049;-77
2024/02/22 03:03:51;;;;;;;40.97;6.05;;;12.90;99.90;;;;;;5054494;28;20017;-77
2024/02/22 03:06:17;;;;;;;37.05;4.18;;;10.30;99.90;;;;;;5053731;28;20029;-78
2024/02/22 03:08:44;;;;;;;27.60;4.18;;;;;;;;;;5051876;28;20017;-77
2024/02/22 03:11:09;;;;;;;34.25;4.80;;;10.20;99.90;;;;;;5052426;28;20120;-78
2024/02/22 03:13:35;;;;;;;23.38;4.07;;;10.20;99.90;;;;;;5053589;28;20028;-78
2024/02/22 03:16:01;;;;;;;30.27;4.32;;;10.10;99.90;;;;;;5054020;28;20021;-77
2024/02/22 03:18:27;;;;;;;27.52;4.13;;;10.10;99.90;;;;;;5052553;28;20032;-78
2024/02/22 03:20:53;;;;;;;26.67;3.40;;;10.10;99.90;;;;;;5052198;28;20029;-78
2024/02/22 03:23:19;;;;;;;20.23;4.05;;;10.10;99.90;;;;;;5052189;28;20088;-78
2024/02/22 03:25:44;;;;;;;25.33;3.47;;;10.10;99.90;;;;;;5052093;28;20017;-77
2024/02/22 03:28:12;;;;;;;27.13;4.80;;;10.10;99.90;;;;;;5053592;28;20021;-78
2024/02/22 03:30:39;;;;;;;23.83;2.70;;;10.00;99.90;;;;;;5053881;28;20025;-78
2024/02/22 03:33:08;;;;;;;20.75;3.22;;;10.00;99.90;;;;;;5052005;28;20027;-77
2024/02/22 03:35:35;;;;;;;;;;;10.00;99.90;;;;;;5052769;28;20051;-78
2024/02/22 03:38:01;;;;;;;19.17;2.75;;;10.00;99.90;;;;;;5053212;28;20346;-78
2024/02/22 03:40:27;;;;;;;22.98;2.90;;;;;;;;;;5051954;28;20112;-77
2024/02/22 03:42:53;;;;;;;25.60;2.92;;;;;;;;;;5052396;28;20033;-78
2024/02/22 03:45:18;;;;;;;25.13;4.10;;;10.00;99.90;;;;;;5052155;28;20055;-78
2024/02/22 03:47:44;;;;;;;25.23;2.33;;;10.00;99.90;;;;;;5052037;28;20587;-78
2024/02/22 03:50:10;;;;;;;26.77;2.33;;;10.00;99.90;;;;;;5052038;28;20013;-78
2024/02/22 03:52:36;;;;;;;32.55;3.30;;;;;;;;;;5053092;28;20025;-78
2024/02/22 03:55:02;;;;;;;23.25;2.58;;;9.90;99.90;;;;;;5054343;28;20018;-78
2024/02/22 03:57:28;;;;;;;26.55;3.05;;;9.90;99.90;;;;;;5051811;28;20434;-78
2024/02/22 03:59:54;;;;;;;27.80;3.65;;;;;;;;;;5053230;28;20021;-78
2024/02/22 04:02:20;;;;;;;41.92;4.78;;;9.90;99.90;;;;;;5051788;28;20033;-78
2024/02/22 04:04:52;;;;;;;31.55;4.35;;;9.90;99.90;;;;;;5053187;28;20078;-78
2024/02/22 04:07:17;;;;;;;25.67;2.75;;;10.00;99.90;;;;;;5053208;28;20401;-78
2024/02/22 04:09:44;;;;;;;23.45;3.53;;;10.00;99.90;;;;;;5052062;28;20056;-78
2024/02/22 04:12:10;;;;;;;19.95;3.33;;;10.00;99.90;;;;;;5052098;28;20045;-78
2024/02/22 04:14:36;;;;;;;24.88;4.43;;;9.90;99.90;;;;;;5060200;28;20396;-79
2024/02/22 04:17:01;;;;;;;19.45;3.22;;;10.00;99.90;;;;;;5062792;28;20096;-79
2024/02/22 04:19:27;;;;;;;29.30;3.67;;;10.00;99.90;;;;;;5064225;28;20035;-80
2024/02/22 04:21:53;;;;;;;25.63;4.05;;;;;;;;;;5066713;28;20043;-79
2024/02/22 04:24:18;;;;;;;26.05;4.97;;;10.00;99.90;;;;;;5066583;28;20462;-79
2024/02/22 04:26:50;;;;;;;25.83;3.60;;;10.00;99.90;;;;;;5067726;28;20017;-79
2024/02/22 04:29:16;;;;;;;29.27;3.85;;;;;;;;;;5066582;28;20024;-79
2024/02/22 04:31:45;;;;;;;18.08;4.00;;;9.90;99.90;;;;;;5066533;28;20032;-79
2024/02/22 04:34:11;;;;;;;28.98;4.63;;;;;;;;;;5068279;28;20052;-79
2024/02/22 04:36:40;;;;;;;32.13;5.25;;;9.90;99.90;;;;;;5066251;28;20075;-79
2024/02/22 04:39:07;;;;;;;24.83;3.72;;;9.90;99.90;;;;;;5065546;28;20025;-79
2024/02/22 04:41:33;;;;;;;29.15;4.60;;;;;;;;;;5067222;28;20480;-79
2024/02/22 04:43:59;;;;;;;42.25;4.95;;;9.90;99.90;;;;;;5067652;28;20033;-79
2024/02/22 04:46:25;;;;;;;22.63;3.97;;;9.90;99.90;;;;;;5065849;28;20020;-79
2024/02/22 04:48:50;;;;;;;31.80;5.15;;;9.90;99.90;;;;;;5065986;28;20104;-79
2024/02/22 04:51:16;;;;;;;20.05;3.00;;;9.90;99.90;;;;;;5066170;28;20056;-79
2024/02/22 04:53:41;;;;;;;25.67;3.20;;;9.90;99.90;;;;;;5063972;28;20494;-79
2024/02/22 04:56:07;;;;;;;24.00;2.65;;;9.80;99.90;;;;;;5063312;28;20021;-79
2024/02/22 04:58:36;;;;;;;25.75;3.28;;;9.80;99.90;;;;;;5064978;28;20065;-79
2024/02/22 05:01:02;;;;;;;;;;;9.70;99.90;;;;;;5063854;28;20099;-79
2024/02/22 05:03:28;;;;;;;23.95;2.88;;;9.70;99.90;;;;;;5063669;28;19944;-79
2024/02/22 05:05:53;;;;;;;26.08;3.72;;;9.70;99.90;;;;;;5064020;28;20036;-79
2024/02/22 05:08:19;;;;;;;25.67;2.88;;;9.70;99.90;;;;;;5065191;28;20043;-79
2024/02/22 05:10:44;;;;;;;16.33;2.38;;;9.70;99.90;;;;;;5065917;28;20040;-79
2024/02/22 05:13:10;;;;;;;27.10;3.53;;;9.70;99.90;;;;;;5065372;28;20021;-79
2024/02/22 05:15:35;;;;;;;21.42;1.80;;;9.70;99.90;;;;;;5065105;28;20029;-79
2024/02/22 05:18:03;;;;;;;29.58;4.15;;;9.70;99.90;;;;;;5065968;28;20021;-78
2024/02/22 05:20:30;;;;;;;23.93;2.83;;;;;;;;;;5065394;28;20017;-79
2024/02/22 05:22:56;;;;;;;19.23;2.72;;;;;;;;;;5066080;28;20060;-79
2024/02/22 05:25:22;;;;;;;30.52;4.20;;;;;;;;;;5065022;28;20029;-80
2024/02/22 05:27:47;;;;;;;22.80;2.58;;;9.70;99.90;;;;;;5064431;28;20027;-79
2024/02/22 05:30:13;;;;;;;23.27;2.92;;;9.60;99.90;;;;;;5064595;28;20543;-79
2024/02/22 05:32:39;;;;;;;24.25;3.60;;;9.70;99.90;;;;;;5064573;28;20082;-79
2024/02/22 05:35:05;;;;;;;29.42;3.83;;;9.70;99.90;;;;;;5063468;28;20040;-79
2024/02/22 05:37:31;;;;;;;19.02;2.15;;;9.70;99.90;;;;;;5064100;28;20071;-79
2024/02/22 05:39:57;;;;;;;23.55;1.90;;;9.70;99.90;;;;;;5064444;28;20373;-79
2024/02/22 05:42:22;;;;;;;14.57;1.83;;;9.70;99.90;;;;;;5065285;28;20053;-80
2024/02/22 05:44:48;;;;;;;25.42;3.35;;;9.60;99.90;;;;;;5066077;28;20028;-79
2024/02/22 05:47:14;;;;;;;26.38;1.98;;;;;;;;;;5065698;28;20005;-79
2024/02/22 05:49:40;;;;;;;18.55;1.40;;;9.70;99.90;;;;;;5064944;28;20083;-79
2024/02/22 05:52:06;;;;;;;27.15;1.90;;;9.40;99.90;;;;;;5065816;28;20025;-79
2024/02/22 05:54:32;;;;;;;22.45;1.20;;;9.40;99.90;;;;;;5065234;28;20090;-79
2024/02/22 05:56:58;;;;;;;14.93;2.50;;;;;;;;;;5065439;28;20040;-79
2024/02/22 05:59:24;;;;;;;18.98;1.63;;;9.30;99.90;;;;;;5065399;28;20504;-80
2024/02/22 06:01:50;;;;;;;23.90;1.40;;;9.30;99.90;;;;;;5064273;28;20047;-79
2024/02/22 06:04:16;;;;;;;23.55;2.35;;;9.30;99.90;;;;;;5064040;28;20025;-79
2024/02/22 06:06:41;;;;;;;24.10;2.13;;;9.30;99.90;;;;;;5064874;28;20040;-79
2024/02/22 06:09:08;;;;;;;13.65;2.85;;;9.30;99.90;;;;;;5063743;28;20024;-79
2024/02/22 06:11:34;;;;;;;29.83;2.55;;;9.30;99.90;;;;;;5064231;28;20029;-79
2024/02/22 06:14:00;;;;;;;13.70;0.70;;;9.20;99.90;;;;;;5065720;28;20492;-79
2024/02/22 06:16:29;;;;;;;26.60;2.95;;;9.20;99.90;;;;;;5064676;28;20104;-79
2024/02/22 06:18:55;;;;;;;12.75;2.00;;;;;;;;;;5063958;28;20033;-79
2024/02/22 06:21:21;;;;;;;19.75;2.15;;;9.30;99.90;;;;;;5063983;28;20055;-79
2024/02/22 06:23:47;;;;;;;13.05;1.55;;;;;;;;;;5061599;28;20096;-79
2024/02/22 06:26:12;;;;;;;17.88;1.00;;;9.20;99.90;;;;;;5064461;28;20053;-79
2024/02/22 06:28:38;;;;;;;16.90;1.05;;;9.30;99.90;;;;;;5064002;28;20087;-79
2024/02/22 06:31:03;;;;;;;18.42;1.80;;;9.30;99.90;;;;;;5063323;28;20025;-79
2024/02/22 06:33:32;;;;;;;16.67;1.35;;;9.30;99.90;;;;;;5064315;28;20029;-79
2024/02/22 06:35:59;;;;;;;19.80;1.88;;;;;;;;;;5063703;28;20075;-79
2024/02/22 06:38:25;;;;;;;24.00;1.90;;;;;;;;;;5063459;28;20028;-79
2024/02/22 06:40:51;;;;;;;16.00;1.40;;;;;;;;;;5064704;28;20535;-80
2024/02/22 06:43:17;;;;;;;12.82;1.70;;;9.20;99.90;;;;;;5063101;28;20021;-79
2024/02/22 06:45:43;;;;;;;14.82;1.60;;;11.00;99.90;;;;;;5064043;28;20025;-79
2024/02/22 06:48:09;;;;;;;17.83;0.70;;;9.10;99.90;;;;;;5063160;28;20051;-79
2024/02/22 06:50:35;;;;;;;12.90;0.70;;;9.10;99.90;;;;;;5062693;28;20075;-79
2024/02/22 06:53:01;;;;;;;17.02;1.75;;;9.00;99.90;;;;;;5064040;28;20060;-79
2024/02/22 06:55:31;;;;;;;14.80;1.02;;;9.00;99.90;;;;;;5064232;28;20036;-79
2024/02/22 06:57:57;;;;;;;21.77;1.85;;;9.00;99.90;;;;;;5064242;28;20017;-79
2024/02/22 07:00:23;;;;;;;12.45;1.88;;;8.90;99.90;;;;;;5064738;28;20455;-79
2024/02/22 07:02:49;;;;;;;16.15;1.17;;;;;;;;;;5064447;28;20120;-79
2024/02/22 07:05:15;;;;;;;18.48;1.27;;;9.00;99.90;;;;;;5063306;28;20151;-79
2024/02/22 07:07:41;;;;;;;16.48;1.92;;;9.10;99.90;;;;;;5063747;28;20028;-79
2024/02/22 07:10:07;;;;;;;19.25;1.58;;;;;;;;;;5063908;28;20048;-79
2024/02/22 07:12:33;;;;;;;18.75;1.40;;;9.20;99.90;;;;;;5063808;28;20028;-79
2024/02/22 07:14:59;;;;;;;26.20;2.88;;;9.20;99.90;;;;;;5062178;28;20025;-79
2024/02/22 07:17:25;;;;;;;19.42;2.92;;;9.20;99.90;;;;;;5063245;28;20480;-79
2024/02/22 07:19:51;;;;;;;17.83;1.65;;;11.00;99.90;;;;;;5064296;28;20063;-79
2024/02/22 07:22:17;;;;;;;20.75;3.63;;;9.30;99.90;;;;;;5062878;28;20044;-79
2024/02/22 07:24:43;;;;;;;17.35;1.88;;;9.40;99.90;;;;;;5062190;28;20032;-79
2024/02/22 07:27:09;;;;;;;16.60;1.58;;;;;;;;;;5063136;28;20025;-79
2024/02/22 07:29:36;;;;;;;14.85;1.23;;;9.50;99.90;;;;;;5047175;28;20064;-79
2024/02/22 07:32:03;;;;;;;24.33;2.00;;;9.50;99.90;;;;;;5064924;28;20430;-79
2024/02/22 07:34:28;;;;;;;19.30;1.98;;;9.50;99.90;;;;;;5064013;28;20519;-79
2024/02/22 07:36:54;;;;;;;10.85;1.42;;;9.50;99.90;;;;;;5065609;28;20025;-79
2024/02/22 07:39:20;;;;;;;13.30;1.85;;;;;;;;;;5064637;28;20048;-79
2024/02/22 07:41:46;;;;;;;20.15;2.22;;;9.50;99.90;;;;;;5062937;28;20068;-79
2024/02/22 07:44:12;;;;;;;25.48;2.60;;;;;;;;;;5063865;28;20097;-79
2024/02/22 07:46:39;;;;;;;20.33;3.17;;;9.60;99.90;;;;;;5065340;28;20025;-79
2024/02/22 07:49:05;;;;;;;13.85;2.85;;;9.60;99.90;;;;;;5064596;28;20021;-79
2024/02/22 07:51:31;;;;;;;18.48;2.60;;;9.60;99.90;;;;;;5064083;28;20088;-79
2024/02/22 07:53:57;;;;;;;19.17;3.35;;;9.60;99.90;;;;;;5063833;28;20029;-79
2024/02/22 07:56:23;;;;;;;15.23;4.03;;;;;;;;;;5067048;28;20039;-79
2024/02/22 07:58:51;;;;;;;18.23;3.70;;;9.60;99.90;;;;;;5067556;28;20075;-79
2024/02/22 08:01:17;;;;;;;25.10;6.25;;;;;;;;;;5068297;28;20025;-80
2024/02/22 08:03:43;;;;;;;27.50;6.00;;;9.70;99.90;;;;;;5067882;28;20100;-79
2024/02/22 08:06:11;;;;;;;21.73;5.22;;;9.70;99.90;;;;;;5067689;28;20028;-79
2024/02/22 08:08:38;;;;;;;20.52;7.28;;;9.70;99.90;;;;;;5067883;28;20442;-79
2024/02/22 08:11:05;;;;;;;28.65;7.15;;;9.70;99.90;;;;;;5067963;28;20017;-79
2024/02/22 08:13:30;;;;;;;21.08;6.97;;;;;;;;;;5068212;28;20093;-80
2024/02/22 08:16:07;;;;;;;26.73;7.47;;;9.70;99.90;;;;;;5067503;28;20025;-79
2024/02/22 08:18:34;;;;;;;20.35;6.50;;;9.80;99.90;;;;;;5068732;28;20396;-79
2024/02/22 08:21:01;;;;;;;27.25;7.32;;;9.80;99.90;;;;;;5068176;28;20024;-79
2024/02/22 08:23:28;;;;;;;26.83;7.68;;;9.80;99.90;;;;;;5066690;28;20037;-79
2024/02/22 08:25:54;;;;;;;23.52;7.03;;;;;;;;;;5069133;28;20017;-79
2024/02/22 08:28:20;;;;;;;21.23;7.15;;;9.90;99.90;;;;;;5068099;28;20029;-79
2024/02/22 08:30:46;;;;;;;23.90;6.63;;;10.00;99.90;;;;;;5068371;28;20120;-79
2024/02/22 08:33:12;;;;;;;17.50;5.05;;;10.00;99.90;;;;;;5067405;28;20031;-79
2024/02/22 08:35:38;;;;;;;19.98;6.35;;;10.00;99.90;;;;;;5067316;28;20020;-79
2024/02/22 08:38:03;;;;;;;10.90;4.40;;;10.00;99.90;;;;;;5067841;28;20040;-79
2024/02/22 08:40:29;;;;;;;13.63;4.22;;;10.10;99.90;;;;;;5068635;28;20029;-79
2024/02/22 08:43:00;;;;;;;14.40;4.18;;;10.10;99.90;;;;;;5069558;28;20510;-80
2024/02/22 08:45:26;;;;;;;17.88;4.15;;;10.20;99.90;;;;;;5069226;28;20028;-79
2024/02/22 08:47:51;;;;;;;15.80;3.03;;;10.20;99.90;;;;;;5067046;28;20093;-79
2024/02/22 08:50:17;;;;;;;15.38;3.15;;;10.20;99.90;;;;;;5067364;28;20085;-80
2024/02/22 08:52:43;;;;;;;10.07;3.13;;;;;;;;;;5068514;28;20442;-79
2024/02/22 08:55:12;;;;;;;11.52;2.85;;;10.20;99.90;;;;;;5069781;28;20064;-79
2024/02/22 08:57:38;;;;;;;;;;;10.20;99.90;;;;;;5070089;28;20029;-80
2024/02/22 09:00:05;;;;;;;6.32;2.22;;;10.20;99.90;;;;;;5069122;28;19905;-79
2024/02/22 09:02:34;;;;;;;8.07;2.38;;;10.30;99.90;;;;;;5070740;28;20052;-79
2024/02/22 09:05:00;;;;;;;8.20;2.47;;;;;;;;;;5069614;28;20024;-79
2024/02/22 09:07:26;;;;;;;8.30;1.80;;;;;;;;;;5069930;28;20028;-80
2024/02/22 09:09:52;;;;;;;6.80;1.92;;;10.40;99.90;;;;;;5071439;28;20049;-79
2024/02/22 09:12:18;;;;;;;6.18;2.00;;;10.40;99.90;;;;;;5071446;28;20029;-79
2024/02/22 09:14:43;;;;;;;8.35;1.67;;;10.50;99.90;;;;;;5070636;28;20027;-81
2024/02/22 09:17:09;;;;;;;6.13;1.98;;;;;;;;;;5068492;28;20036;-80
2024/02/22 09:19:36;;;;;;;4.68;2.13;;;;;;;;;;5069005;28;20021;-80
2024/02/22 09:22:02;;;;;;;7.53;2.28;;;;;;;;;;5069880;28;20033;-79
2024/02/22 09:24:29;;;;;;;4.53;1.33;;;10.80;99.90;;;;;;5069439;28;20033;-80
2024/02/22 09:26:55;;;;;;;6.85;1.63;;;;;;;;;;5069208;28;20415;-80
2024/02/22 09:29:21;;;;;;;3.45;1.20;;;10.90;99.90;;;;;;5068065;28;20025;-80
2024/02/22 09:31:47;;;;;;;7.10;1.35;;;;;;;;;;5068587;28;20016;-79
2024/02/22 09:34:14;;;;;;;5.28;1.55;;;11.00;99.90;;;;;;5069733;28;20080;-79
2024/02/22 09:36:40;;;;;;;4.20;1.00;;;11.00;99.90;;;;;;5067009;28;20017;-80
2024/02/22 09:39:06;;;;;;;3.80;1.80;;;11.00;99.90;;;;;;5067681;28;20032;-80
2024/02/22 09:41:33;;;;;;;10.05;1.58;;;11.10;99.90;;;;;;5067313;28;20029;-80
2024/02/22 09:43:58;;;;;;;5.15;1.05;;;11.20;99.90;;;;;;5067439;28;20088;-79
2024/02/22 09:46:25;;;;;;;2.63;1.20;;;11.20;99.90;;;;;;5066575;28;20040;-80
2024/02/22 09:48:51;;;;;;;3.65;1.25;;;11.20;99.90;;;;;;5067461;28;20020;-80
2024/02/22 09:51:17;;;;;;;5.53;1.08;;;11.40;99.90;;;;;;5069399;28;20021;-79
2024/02/22 09:53:45;;;;;;;4.28;0.85;;;11.40;99.90;;;;;;5067911;28;20528;-80
2024/02/22 09:56:14;;;;;;;5.47;1.23;;;11.50;99.90;;;;;;5067069;28;20048;-80
2024/02/22 09:58:39;;;;;;;;;;;11.60;99.90;;;;;;5067716;28;20028;-80
2024/02/22 10:01:05;;;;;;;4.32;1.48;;;11.70;99.90;;;;;;5069387;28;19920;-79
2024/02/22 10:03:34;;;;;;;2.58;1.27;;;11.90;99.90;;;;;;5067060;28;20021;-80
2024/02/22 10:06:00;;;;;;;;;;;12.00;99.90;;;;;;5067867;28;20032;-79
2024/02/22 10:08:26;;;;;;;4.22;0.75;;;12.00;99.90;;;;;;5068189;28;20374;-80
2024/02/22 10:10:55;;;;;;;1.88;0.90;;;11.80;99.90;;;;;;5069038;28;20028;-79
2024/02/22 10:13:22;;;;;;;1.50;0.75;;;11.80;99.90;;;;;;5066791;28;20423;-80
2024/02/22 10:15:48;;;;;;;3.75;0.85;;;11.70;99.90;;;;;;5067146;28;20067;-80
2024/02/22 10:18:24;;;;;;;6.28;0.93;;;11.70;99.90;;;;;;5066341;28;20447;-80
2024/02/22 10:20:50;;;;;;;0.60;0.30;;;;;;;;;;5067931;28;20021;-79
2024/02/22 10:23:18;;;;;;;1.35;0.60;;;;;;;;;;5066530;28;20409;-79
2024/02/22 10:25:44;;;;;;;1.65;0.22;;;11.70;99.90;;;;;;5066079;28;20051;-80
2024/02/22 10:28:16;;;;;;;0.17;0.10;;;;;;;;;;5068465;28;20040;-80
2024/02/22 10:30:44;;;;;;;0.75;0.20;;;11.80;99.90;;;;;;5062506;28;20529;-78
2024/02/22 10:33:11;;;;;;;0.47;0.20;;;11.80;99.90;;;;;;5053712;28;20504;-78
2024/02/22 10:35:40;;;;;;;0.80;0.30;;;11.90;99.90;;;;;;5053645;28;20029;-78
2024/02/22 10:38:08;;;;;;;1.85;0.50;;;11.90;99.90;;;;;;5053469;28;20082;-78
2024/02/22 10:40:35;;;;;;;0.40;0.30;;;;;;;;;;5054726;28;20094;-78
2024/02/22 10:43:04;;;;;;;1.45;0.10;;;11.70;99.90;;;;;;5053622;28;20025;-78
2024/02/22 10:45:31;;;;;;;1.60;0.15;;;;;;;;;;5054374;28;20017;-78
2024/02/22 10:48:04;;;;;;;0.20;0.10;;;11.80;99.90;;;;;;5053530;28;20033;-78
2024/02/22 10:50:33;;;;;;;0.30;0.10;;;11.80;99.90;;;;;;5054762;28;20066;-78
2024/02/22 10:53:02;;;;;;;2.38;0.10;;;11.90;99.90;;;;;;5054952;28;20025;-78
2024/02/22 10:55:29;;;;;;;0.73;0.20;;;11.90;99.90;;;;;;5054905;28;20368;-78
2024/02/22 10:57:57;;;;;;;0.63;0.10;;;11.90;99.90;;;;;;5054646;28;20084;-78
2024/02/22 11:00:23;;;;;;;0.65;0.17;;;;;;;;;;5053242;28;20514;-78
2024/02/22 11:02:50;;;;;;;0.50;0.10;;;11.70;99.90;;;;;;5056837;28;20055;-79
2024/02/22 11:05:16;;;;;;;0.55;0.35;;;11.70;99.90;;;;;;5066755;28;20017;-79
2024/02/22 11:07:43;;;;;;;0.88;0.38;;;11.70;99.90;;;;;;5067290;28;20503;-79
2024/02/22 11:10:12;;;;;;;2.05;0.45;;;11.60;99.90;;;;;;5066601;28;20025;-80
2024/02/22 11:12:42;;;;;;;;;;;11.50;99.90;;;;;;5067733;28;20013;-80
2024/02/22 11:15:10;;;;;;;1.48;0.47;;;11.50;99.90;;;;;;5067116;28;19904;-80
2024/02/22 11:17:36;;;;;;;1.63;0.65;;;11.50;99.90;;;;;;5066186;28;20139;-79
2024/02/22 11:20:09;;;;;;;1.52;0.77;;;11.40;99.90;;;;;;5068105;28;20075;-79
2024/02/22 11:22:38;;;;;;;2.08;1.05;;;11.50;99.90;;;;;;5066392;28;20021;-80
2024/02/22 11:25:09;;;;;;;1.52;0.77;;;11.50;99.90;;;;;;5065914;28;20025;-80
2024/02/22 11:27:36;;;;;;;2.03;1.25;;;11.50;99.90;;;;;;5065491;28;20021;-79
2024/02/22 11:30:13;;;;;;;2.40;1.30;;;11.70;99.90;;;;;;5065779;28;20021;-79
2024/02/22 11:32:40;;;;;;;3.22;2.00;;;11.60;99.90;;;;;;5066245;28;20029;-80
2024/02/22 11:35:06;;;;;;;2.97;1.60;;;11.70;99.90;;;;;;5066106;28;20551;-79
2024/02/22 11:37:31;;;;;;;5.38;2.03;;;11.80;99.90;;;;;;5065357;28;20461;-79
2024/02/22 11:40:00;;;;;;;2.90;1.27;;;11.80;99.90;;;;;;5067014;28;20021;-80
2024/02/22 11:42:26;;;;;;;4.03;1.20;;;11.90;99.90;;;;;;5065780;28;20029;-80
2024/02/22 11:44:53;;;;;;;2.30;1.00;;;11.90;99.90;;;;;;5065913;28;20052;-79
2024/02/22 11:47:19;;;;;;;2.10;1.38;;;11.90;99.90;;;;;;5065982;28;20017;-79
2024/02/22 11:49:45;;;;;;;1.60;0.70;;;11.90;99.90;;;;;;5066680;28;20025;-79
2024/02/22 11:52:14;;;;;;;1.10;0.57;;;11.90;99.90;;;;;;5066513;28;20043;-80
2024/02/22 11:54:42;;;;;;;1.48;0.90;;;12.00;99.90;;;;;;5065785;28;20032;-79
2024/02/22 11:57:08;;;;;;;1.63;0.50;;;11.90;99.90;;;;;;5065306;28;20078;-79
2024/02/22 11:59:34;;;;;;;0.52;0.50;;;11.90;99.90;;;;;;5060362;28;20028;-85
2024/02/22 12:02:05;;;;;;;1.20;0.38;;;11.90;99.90;;;;;;5056184;28;20415;-85
2024/02/22 12:04:33;;;;;;;0.75;0.20;;;11.90;99.90;;;;;;5056995;28;20040;-86
2024/02/22 12:07:01;;;;;;;0.82;0.30;;;11.80;99.90;;;;;;5055624;28;20097;-85
2024/02/22 12:09:28;;;;;;;1.92;0.38;;;11.80;99.90;;;;;;5055158;28;20109;-85
2024/02/22 12:11:55;;;;;;;0.20;0.10;;;11.90;99.90;;;;;;5055261;28;20119;-86
2024/02/22 12:14:21;;;;;;;0.50;0.20;;;;;;;;;;5055767;28;20025;-85
2024/02/22 12:16:49;;;;;;;0.30;0.30;;;11.90;99.90;;;;;;5057686;28;20438;-84
2024/02/22 12:19:21;;;;;;;1.80;0.20;;;11.90;99.90;;;;;;5056363;28;20064;-85
2024/02/22 12:21:47;;;;;;;0.47;0.38;;;;;;;;;;5056424;28;20033;-86
2024/02/22 12:24:13;;;;;;;2.25;0.20;;;11.90;99.90;;;;;;5057701;28;20083;-85
2024/02/22 12:26:39;;;;;;;0.50;0.40;;;11.90;99.90;;;;;;5056802;28;20033;-85
2024/02/22 12:29:06;;;;;;;1.48;0.30;;;11.90;99.90;;;;;;5058355;28;20017;-85
2024/02/22 12:31:31;;;;;;;1.02;0.20;;;11.90;99.90;;;;;;5056810;28;20029;-85
2024/02/22 12:33:58;;;;;;;0.10;0.10;;;12.00;99.90;;;;;;5055269;28;20029;-85
2024/02/22 12:36:24;;;;;;;0.65;0.10;;;12.00;99.90;;;;;;5056022;28;20021;-86
2024/02/22 12:38:50;;;;;;;0.50;0.20;;;12.00;99.90;;;;;;5055681;28;20021;-86
2024/02/22 12:41:20;;;;;;;0.15;0.15;;;12.00;99.90;;;;;;5058403;28;20404;-85
2024/02/22 12:43:48;;;;;;;2.83;0.28;;;12.10;99.90;;;;;;5059077;28;20024;-85
2024/02/22 12:46:15;;;;;;;0.20;0.10;;;12.00;99.90;;;;;;5058854;28;20107;-85
2024/02/22 12:48:42;;;;;;;0.65;0.10;;;;;;;;;;5058717;28;20081;-86
2024/02/22 12:51:10;;;;;;;2.63;0.00;;;12.10;99.90;;;;;;5059269;28;20021;-85
2024/02/22 12:53:35;;;;;;;0.98;0.10;;;;;;;;;;5058130;28;20476;-85
2024/02/22 12:56:02;;;;;;;1.88;0.05;;;13.20;99.90;;;;;;5058931;28;20027;-85
2024/02/22 12:58:29;;;;;;;1.90;0.10;;;;;;;;;;5058600;28;20017;-85
2024/02/22 13:00:55;;;;;;;0.10;0.10;;;;;;;;;;5059294;28;20029;-85
2024/02/22 13:03:21;;;;;;;0.10;0.10;;;12.20;99.90;;;;;;5058408;28;20025;-86